Aeroporto :
LOGIN :

Iscrizione | Disclaimer

   EN    FR    IT 

 










Sommario :    VFR   VFR Marginale   IFR   IFR Intensivo   IFR Molto Intensivo
Visibilità : 
Base nubi : 
>= 8 km
>= 3000ft
5 / 8 km
1000 / 3000 ft
1500m / 5 km
500 / 1000 ft
800 / 1500m
200 / 500 ft
< 800m
< 200 ft
Simboli :   Temporali  Nebbia  Neve Forte  Precipitazioni Forti  Vento > 20 kt
SIGMETs :   Varie  Temporali  Ghiacco  Turbolenza  Onda orograficha  Ceneri Vulcaniche






- Altitudine del aeroporto : 144 ft
- Codice IATA : PGF


LFMP - Perpignan

ULTIMO METAR :
  • 221630Z AUTO 13004KT 100V160 CAVOK 15/05 Q1032 NOSIG

METARs OBSOLETI :
  • 221600Z AUTO 10008KT CAVOK 15/05 Q1031 NOSIG
  • 221530Z AUTO 11007KT CAVOK 16/05 Q1031 NOSIG
  • 221500Z AUTO 12006KT 080V140 CAVOK 17/05 Q1031 NOSIG
  • 221430Z AUTO 11006KT 070V160 CAVOK 17/07 Q1031 NOSIG
  • 221400Z AUTO 13005KT 060V160 CAVOK 17/07 Q1031 NOSIG
  • 221330Z AUTO 12004KT 070V180 CAVOK 17/07 Q1031 NOSIG

TAF TAF LFMP
Valido dal 22 a 15 ore il 23 a 15 ore UTC


221400Z 2215/2315 12010KT CAVOK
BECMG 2215/2217 VRB05KT
ATIS : +33 4 68 63 75 12



MetMap, La meteo Aeronautica in un colpo d'occhio ! - Copyright ORBIFLY Dicembre 2007 - Disclaimer

ORBIFLY MET'MAP TEAM :

Programmazione e sviluppo : Alexandra Zaïnal
Concezione : Baudouin d'Aumeries
Aiuto per la programmazione : Marc-Olivier Méhu
Supporto tecnico e logistico : Manuel Goepfert
Aiuto per la traduzione : Arnaldo La Scala

Contatto : metmap@orbifly.com




FONTI E CREDITI :

   NOAA